Mathews, Alabama
Current Conditions -  °F | °C
As of 1:58 AM on Sunday 26 Oct 2014 (Local Time) from KMXF Reporting Station
Clear Clear  
Wind Chill: 55°   Ceiling: Unl
Heat Index: 55°   Visibility: 7mi
Dew Point: 55°   Wind: 1mph
Humidity: 100%   Direction: 190°S
Pressure: 30.03"   Gusts: NA
Location:  32.27°N, 86°W
Report Text: KMXF 260658Z AUTO 19001KT 7SM CLR 13/13 A3003 RMK AO2 SLP171 T01290129
Loading
Personal Weather Stations






























Interactive Weather Map
Tropical Storm Tracking
New forecast layout! Learn more

10-Day Weather Forecast

Advertisements
Track Severe Weather on mobile